Terminal Aerodrome Forecast
Issued by NWS Binghamton, NY

Home | Current Version | Previous Version | Text Only | Print | Product List | Glossary On
Versions: 1 2 3 4 5 6 7 8 9 10 11 12 13 14 15 16 17 18 19 20 21 22
000
FTUS41 KBGM 212300 CCA
TAFSYR
TAF COR
KSYR 212342Z 2200/2224 VRB03KT P6SM SCT025
      TEMPO 2208/2212 OVC025
     FM221500 14003KT P6SM -SHRA BKN035=

USA.gov is the U.S. government's official web portal to all federal, state and local government web resources and services.